ザグレブ の空港の天気 - METARとTAF

ザグレブ国際空港 ( LDZA / ZAG ) - クロアチア ザグレブ
飛行場実況気象(Metar)
観測時間07/17 10:30 CEST (07/17 08:30 UTC)
風向・風速不定 2m/s
視程10km以上
天気現象
なし
気温24℃
湿度54%
気圧1014hPa
METARLDZA 170830Z VRB03KT CAVOK 24/14 Q1014 NOSIG
過去の天気等 Google飛行場航空写真 Wunderground天気予報

過去48時間のMETAR

飛行場予報(TAF)
発表時間: 7/17 07:25 CEST (7/17 05:25 UTC)
予報対象時間: 17日8時 CEST ~ 18日8時 CEST
風向・風速不定 1m/s
視程10km以上
なし
17日17時 CEST ~ 17日22時 CEST に一時的に
風向・風速南西 4m/s
18日0時 CEST ~ 18日8時 CEST に 確率 30% で一時的に
天気現象雷雨
少しの積乱雲 雲底高度 910m
全天の8割程度の雲 雲底高度 1070m
18日6時 CEST ~ 18日8時 CEST に徐々に
風向・風速北東 4m/s
TAF LDZA 170525Z 1706/1806 VRB02KT CAVOK TX29/1714Z TN16/1803Z
TEMPO 1715/1720 23007KT
PROB30 TEMPO 1722/1806 TSRA FEW030CB BKN035
BECMG 1804/1806 05007KT